Time;durP1;ratioP1;P1;durP2;ratioP2;P2;SDS_P1;SDS_P2;PMS_P1;PMS_P2;Temp;Humidity;BMP_temperature;BMP_pressure;BME280_temperature;BME280_humidity;BME280_pressure;Samples;Min_cycle;Max_cycle;Signal;HPM_P1;HPM_P2
2021/08/21 00:00:18;;;;;;;6.95;3.80;;;23.90;91.40;;;;;;6186328;23;20001;-90
2021/08/21 00:02:44;;;;;;;6.13;3.55;;;23.90;91.70;;;;;;6185346;23;20017;-89
2021/08/21 00:05:10;;;;;;;6.95;3.88;;;23.90;91.30;;;;;;6185839;23;20005;-90
2021/08/21 00:07:36;;;;;;;5.47;3.63;;;23.90;91.40;;;;;;6186375;23;20055;-84
2021/08/21 00:10:05;;;;;;;5.55;3.85;;;23.80;91.30;;;;;;6185830;23;20048;-90
2021/08/21 00:12:31;;;;;;;8.60;4.22;;;23.80;91.50;;;;;;6185825;23;20391;-88
2021/08/21 00:14:56;;;;;;;6.60;3.72;;;23.80;91.40;;;;;;6185815;23;20025;-88
2021/08/21 00:17:22;;;;;;;7.57;4.00;;;23.70;91.50;;;;;;6185830;23;20075;-89
2021/08/21 00:19:48;;;;;;;10.38;3.90;;;23.70;91.60;;;;;;6185794;23;20075;-89
2021/08/21 00:22:14;;;;;;;8.50;3.50;;;23.70;91.60;;;;;;6185932;23;20051;-84
2021/08/21 00:24:41;;;;;;;6.32;3.72;;;23.70;91.50;;;;;;6185813;23;20084;-90
2021/08/21 00:27:07;;;;;;;4.75;3.58;;;23.70;91.40;;;;;;6187933;23;20005;-89
2021/08/21 00:29:33;;;;;;;7.80;3.88;;;23.70;91.40;;;;;;6187493;23;20009;-82
2021/08/21 00:31:59;;;;;;;6.13;3.53;;;23.70;91.30;;;;;;6187689;23;20012;-86
2021/08/21 00:34:25;;;;;;;5.32;3.63;;;23.70;91.40;;;;;;6187318;23;20021;-90
2021/08/21 00:36:51;;;;;;;7.82;4.15;;;23.70;91.40;;;;;;6186455;23;20012;-81
2021/08/21 00:39:17;;;;;;;7.28;4.00;;;23.70;91.40;;;;;;6187149;23;20001;-85
2021/08/21 00:41:43;;;;;;;8.27;3.78;;;23.70;91.40;;;;;;6160987;23;20428;-86
2021/08/21 00:44:09;;;;;;;8.07;4.20;;;23.70;91.20;;;;;;6187232;23;19997;-82
2021/08/21 00:47:05;;;;;;;9.50;4.30;;;23.70;91.30;;;;;;6187298;23;20051;-90
2021/08/21 00:49:35;;;;;;;4.38;3.47;;;23.70;91.30;;;;;;6187584;23;20002;-89
2021/08/21 00:52:03;;;;;;;6.65;3.78;;;23.70;91.40;;;;;;6187859;23;20385;-90
2021/08/21 00:54:29;;;;;;;6.45;3.83;;;23.70;91.40;;;;;;6187242;23;20029;-82
2021/08/21 00:56:57;;;;;;;7.20;4.00;;;23.70;91.30;;;;;;6187419;23;20458;-86
2021/08/21 00:59:22;;;;;;;6.70;4.18;;;23.70;91.20;;;;;;6187901;23;20480;-84
2021/08/21 01:01:49;;;;;;;7.55;5.20;;;23.70;91.60;;;;;;6186490;23;20025;-81
2021/08/21 01:04:16;;;;;;;6.60;4.05;;;23.70;91.70;;;;;;6159338;23;20039;-84
2021/08/21 01:06:41;;;;;;;9.68;4.00;;;23.80;91.60;;;;;;6186026;23;20012;-91
2021/08/21 01:09:07;;;;;;;6.68;3.78;;;23.70;91.00;;;;;;6185937;23;20068;-80
2021/08/21 01:11:33;;;;;;;6.07;3.90;;;23.80;91.10;;;;;;6185802;23;20009;-83
2021/08/21 01:13:59;;;;;;;6.22;3.78;;;23.70;91.20;;;;;;6186024;23;20005;-85
2021/08/21 01:16:26;;;;;;;9.63;4.50;;;23.70;90.90;;;;;;6185620;23;20008;-89
2021/08/21 01:18:52;;;;;;;9.45;3.63;;;23.70;90.60;;;;;;6185703;23;20001;-84
2021/08/21 01:21:19;;;;;;;11.65;4.72;;;23.70;90.60;;;;;;6185673;23;20008;-86
2021/08/21 01:23:47;;;;;;;5.90;4.13;;;23.70;90.70;;;;;;6186143;23;20007;-86
2021/08/21 01:26:13;;;;;;;6.40;3.85;;;23.70;90.70;;;;;;6185591;23;20016;-89
2021/08/21 01:28:39;;;;;;;7.75;3.60;;;23.70;90.50;;;;;;6185403;23;20009;-90
2021/08/21 01:31:06;;;;;;;4.07;3.17;;;23.70;90.40;;;;;;6186260;23;20060;-88
2021/08/21 01:33:34;;;;;;;6.32;4.20;;;23.70;90.30;;;;;;6186632;23;19997;-85
2021/08/21 01:36:00;;;;;;;5.15;4.03;;;23.70;90.30;;;;;;6186422;23;20005;-85
2021/08/21 01:38:26;;;;;;;5.70;4.07;;;23.70;90.10;;;;;;6186837;23;20071;-90
2021/08/21 01:40:53;;;;;;;7.45;4.22;;;23.80;90.00;;;;;;6186705;23;20009;-87
2021/08/21 01:43:19;;;;;;;5.07;3.75;;;23.80;89.90;;;;;;6186475;23;19997;-86
2021/08/21 01:45:45;;;;;;;12.35;3.70;;;23.90;89.60;;;;;;6186701;23;19997;-82
2021/08/21 01:48:13;;;;;;;6.82;4.15;;;23.90;89.60;;;;;;6186952;23;20001;-84
2021/08/21 01:50:39;;;;;;;4.75;3.97;;;23.90;89.60;;;;;;6186393;23;20013;-87
2021/08/21 01:53:11;;;;;;;5.55;3.92;;;23.90;90.10;;;;;;6188013;23;20029;-84
2021/08/21 01:55:37;;;;;;;5.15;3.60;;;24.00;89.20;;;;;;6197821;23;20039;-90
2021/08/21 01:58:03;;;;;;;4.50;3.50;;;24.00;89.30;;;;;;6191928;23;20455;-85
2021/08/21 02:00:28;;;;;;;5.28;4.00;;;24.00;89.10;;;;;;6186741;23;20001;-90
2021/08/21 02:02:55;;;;;;;3.70;3.35;;;24.00;89.10;;;;;;6186288;23;20024;-87
2021/08/21 02:05:22;;;;;;;6.47;3.67;;;24.00;88.90;;;;;;6186339;23;20001;-84
2021/08/21 02:07:47;;;;;;;5.22;4.10;;;24.10;88.60;;;;;;6186468;23;20001;-85
2021/08/21 02:10:15;;;;;;;7.70;4.20;;;24.10;88.70;;;;;;6186368;23;20051;-83
2021/08/21 02:12:40;;;;;;;7.28;4.03;;;24.00;88.90;;;;;;6186638;23;19997;-86
2021/08/21 02:15:11;;;;;;;8.13;3.80;;;24.00;88.90;;;;;;6186482;23;20072;-88
2021/08/21 02:17:37;;;;;;;4.53;3.40;;;24.00;89.10;;;;;;6186407;23;20415;-89
2021/08/21 02:20:11;;;;;;;6.18;3.50;;;24.00;89.00;;;;;;6186630;23;20005;-82
2021/08/21 02:22:40;;;;;;;7.35;4.38;;;24.00;89.10;;;;;;6186393;23;20001;-86
2021/08/21 02:25:07;;;;;;;4.68;3.60;;;24.00;88.90;;;;;;6186174;23;20059;-89
2021/08/21 02:27:42;;;;;;;6.53;3.90;;;24.00;89.00;;;;;;6186460;23;20001;-85
2021/08/21 02:30:09;;;;;;;4.90;3.30;;;23.90;89.10;;;;;;6186123;23;20013;-85
2021/08/21 02:32:35;;;;;;;5.05;3.78;;;23.90;89.20;;;;;;6186316;23;20458;-90
2021/08/21 02:35:02;;;;;;;9.75;4.10;;;23.80;89.20;;;;;;6185963;23;20001;-89
2021/08/21 02:37:27;;;;;;;9.68;4.63;;;23.80;89.20;;;;;;6186296;23;20001;-80
2021/08/21 02:39:56;;;;;;;5.97;3.63;;;23.80;89.50;;;;;;6186336;23;20080;-86
2021/08/21 02:42:22;;;;;;;6.05;3.53;;;23.80;89.50;;;;;;6186302;23;20024;-88
2021/08/21 02:44:47;;;;;;;6.13;3.88;;;23.80;89.30;;;;;;6186266;23;20488;-89
2021/08/21 02:47:13;;;;;;;7.07;3.63;;;23.80;89.30;;;;;;6185643;23;20005;-89
2021/08/21 02:49:39;;;;;;;12.98;3.95;;;23.80;89.30;;;;;;6186045;23;20009;-87
2021/08/21 02:52:05;;;;;;;7.80;3.72;;;23.80;89.60;;;;;;6186334;23;20428;-80
2021/08/21 02:54:31;;;;;;;8.95;4.15;;;23.70;90.00;;;;;;6185767;23;20007;-89
2021/08/21 02:56:57;;;;;;;10.45;3.80;;;23.70;89.50;;;;;;6186092;23;20067;-81
2021/08/21 02:59:22;;;;;;;7.65;3.70;;;23.70;89.50;;;;;;6186088;23;20005;-88
2021/08/21 03:01:48;;;;;;;7.82;3.58;;;23.70;89.50;;;;;;6186117;23;20005;-86
2021/08/21 03:04:14;;;;;;;8.23;4.13;;;23.70;89.50;;;;;;6185691;23;20058;-89
2021/08/21 03:06:40;;;;;;;7.63;3.92;;;23.70;89.30;;;;;;6185722;23;20455;-90
2021/08/21 03:09:05;;;;;;;7.45;3.70;;;23.70;90.10;;;;;;6186365;23;20089;-88
2021/08/21 03:11:31;;;;;;;8.65;4.07;;;23.70;89.20;;;;;;6186420;23;20019;-88
2021/08/21 03:13:57;;;;;;;5.53;3.92;;;23.70;89.60;;;;;;6185987;23;19997;-81
2021/08/21 03:16:23;;;;;;;10.10;3.80;;;23.70;89.30;;;;;;6185750;23;20356;-88
2021/08/21 03:18:49;;;;;;;7.55;4.03;;;23.60;89.10;;;;;;6186035;23;20008;-88
2021/08/21 03:21:15;;;;;;;11.80;4.07;;;23.70;89.50;;;;;;6186235;23;20005;-87
2021/08/21 03:23:41;;;;;;;5.32;3.97;;;23.60;89.40;;;;;;6160205;23;20001;-89
2021/08/21 03:26:07;;;;;;;13.32;4.35;;;23.60;89.40;;;;;;6185903;23;20001;-84
2021/08/21 03:28:33;;;;;;;7.22;4.43;;;23.60;89.20;;;;;;6185669;23;20012;-90
2021/08/21 03:30:59;;;;;;;5.68;4.13;;;23.60;89.10;;;;;;6185818;23;20009;-83
2021/08/21 03:33:24;;;;;;;7.50;4.05;;;23.60;89.00;;;;;;6186055;23;20055;-88
2021/08/21 03:35:51;;;;;;;8.75;4.22;;;23.60;89.10;;;;;;6185984;23;20013;-81
2021/08/21 03:38:18;;;;;;;7.75;3.65;;;23.60;89.10;;;;;;6185680;23;20005;-85
2021/08/21 03:40:44;;;;;;;10.93;4.65;;;23.60;88.80;;;;;;6185742;23;20005;-88
2021/08/21 03:43:09;;;;;;;5.72;3.78;;;23.60;89.20;;;;;;6185841;23;20004;-88
2021/08/21 03:45:36;;;;;;;5.78;3.63;;;23.60;89.40;;;;;;6186086;23;20032;-88
2021/08/21 03:48:02;;;;;;;7.32;4.68;;;23.60;89.20;;;;;;6186477;23;20033;-90
2021/08/21 03:50:28;;;;;;;8.25;3.65;;;23.60;89.50;;;;;;6186522;23;20013;-87
2021/08/21 03:52:54;;;;;;;9.35;4.70;;;23.50;89.40;;;;;;6186771;23;20013;-86
2021/08/21 03:55:19;;;;;;;13.48;4.40;;;23.50;89.40;;;;;;6186000;23;20365;-84
2021/08/21 03:57:45;;;;;;;6.13;3.90;;;23.40;89.80;;;;;;6185707;23;19993;-89
2021/08/21 04:00:11;;;;;;;4.32;3.30;;;23.40;90.00;;;;;;6186748;23;20076;-87
2021/08/21 04:02:37;;;;;;;11.23;4.30;;;23.30;90.00;;;;;;6187825;23;20009;-88
2021/08/21 04:05:03;;;;;;;7.55;4.25;;;23.20;90.20;;;;;;6187793;23;20005;-89
2021/08/21 04:07:28;;;;;;;6.22;4.18;;;23.20;90.10;;;;;;6187831;23;19997;-86
2021/08/21 04:09:54;;;;;;;6.03;3.92;;;23.20;90.20;;;;;;6187465;23;20006;-85
2021/08/21 04:12:20;;;;;;;7.78;4.38;;;23.10;90.30;;;;;;6187798;23;20005;-88
2021/08/21 04:14:46;;;;;;;8.52;4.38;;;23.10;90.40;;;;;;6161789;23;20009;-86
2021/08/21 04:17:12;;;;;;;5.00;3.78;;;23.10;90.30;;;;;;6187524;23;20059;-86
2021/08/21 04:19:37;;;;;;;8.57;4.45;;;23.10;90.40;;;;;;6188199;23;20005;-88
2021/08/21 04:22:03;;;;;;;15.77;4.65;;;23.10;90.40;;;;;;6188857;23;20133;-89
2021/08/21 04:24:29;;;;;;;7.55;4.18;;;23.10;90.40;;;;;;6187568;23;19997;-80
2021/08/21 04:26:55;;;;;;;7.35;4.07;;;23.10;90.30;;;;;;6187491;23;20001;-82
2021/08/21 04:29:20;;;;;;;6.80;4.13;;;23.10;90.30;;;;;;6187807;23;20012;-81
2021/08/21 04:31:46;;;;;;;6.13;3.80;;;23.20;90.30;;;;;;6195261;23;20020;-80
2021/08/21 04:34:12;;;;;;;6.93;4.20;;;23.20;90.30;;;;;;6195029;23;20001;-86
2021/08/21 04:36:38;;;;;;;9.27;4.25;;;23.20;90.30;;;;;;6187640;23;20027;-84
2021/08/21 04:39:03;;;;;;;10.38;4.13;;;23.20;90.40;;;;;;6187459;23;20027;-86
2021/08/21 04:41:29;;;;;;;5.38;3.92;;;23.20;90.30;;;;;;6187206;23;20428;-88
2021/08/21 04:43:55;;;;;;;5.70;3.50;;;23.20;90.30;;;;;;6188104;23;20004;-88
2021/08/21 04:46:21;;;;;;;5.90;3.97;;;23.20;90.20;;;;;;6187101;23;20047;-82
2021/08/21 04:48:47;;;;;;;7.18;4.43;;;23.30;90.10;;;;;;6187067;23;19993;-91
2021/08/21 04:51:12;;;;;;;6.57;4.35;;;23.40;90.00;;;;;;6187362;23;20017;-91
2021/08/21 04:53:38;;;;;;;8.68;4.40;;;23.40;90.00;;;;;;6187328;23;20421;-87
2021/08/21 04:56:07;;;;;;;8.18;4.15;;;23.60;90.00;;;;;;6192609;23;20332;-83
2021/08/21 04:58:33;;;;;;;8.98;3.88;;;23.70;89.50;;;;;;6187828;23;20064;-87
2021/08/21 05:00:59;;;;;;;12.88;3.97;;;23.90;89.00;;;;;;6187095;23;20440;-84
2021/08/21 05:03:24;;;;;;;7.63;3.67;;;24.20;88.30;;;;;;6187355;23;20024;-89
2021/08/21 05:05:50;;;;;;;6.07;4.32;;;24.50;87.70;;;;;;6187201;23;20340;-87
2021/08/21 05:08:16;;;;;;;5.63;3.40;;;25.00;86.50;;;;;;6160979;23;19997;-90
2021/08/21 05:10:43;;;;;;;5.35;4.13;;;25.50;85.10;;;;;;6186365;23;20049;-89
2021/08/21 05:13:08;;;;;;;5.82;3.92;;;26.00;84.40;;;;;;6187077;23;20041;-86
2021/08/21 05:15:34;;;;;;;6.75;4.03;;;26.60;83.20;;;;;;6187864;23;20028;-83
2021/08/21 05:18:02;;;;;;;8.02;3.72;;;27.00;81.90;;;;;;6187268;23;20024;-88
2021/08/21 05:20:30;;;;;;;6.05;3.88;;;27.00;81.80;;;;;;6186822;23;20071;-88
2021/08/21 05:23:04;;;;;;;8.13;4.30;;;27.10;81.90;;;;;;6186940;23;20028;-81
2021/08/21 05:25:31;;;;;;;5.22;3.95;;;27.60;81.60;;;;;;6187365;23;20068;-88
2021/08/21 05:27:58;;;;;;;9.57;4.53;;;28.40;80.00;;;;;;6187132;23;20448;-88
2021/08/21 05:30:27;;;;;;;6.10;3.45;;;29.20;78.40;;;;;;6186766;23;20065;-80
2021/08/21 05:32:54;;;;;;;3.90;3.47;;;29.70;76.80;;;;;;6186990;23;20051;-83
2021/08/21 05:35:20;;;;;;;8.80;3.90;;;30.30;75.50;;;;;;6186919;23;20009;-80
2021/08/21 05:37:45;;;;;;;6.75;3.58;;;31.10;74.20;;;;;;6186563;23;19999;-91
2021/08/21 05:40:12;;;;;;;7.05;3.38;;;32.00;72.80;;;;;;6187068;23;20001;-90
2021/08/21 05:42:38;;;;;;;9.27;3.92;;;32.60;71.40;;;;;;6186304;23;20005;-87
2021/08/21 05:45:04;;;;;;;4.97;3.88;;;32.70;70.70;;;;;;6187162;23;20043;-90
2021/08/21 05:47:29;;;;;;;3.63;3.20;;;32.90;70.30;;;;;;6160164;23;20055;-89
2021/08/21 05:50:00;;;;;;;7.95;3.45;;;33.30;69.90;;;;;;6186790;23;20080;-90
2021/08/21 05:52:26;;;;;;;5.95;3.28;;;33.50;69.80;;;;;;6186843;23;20080;-89
2021/08/21 05:55:00;;;;;;;9.27;3.85;;;33.40;68.80;;;;;;6187490;23;20005;-91
2021/08/21 05:57:26;;;;;;;4.25;3.20;;;33.40;68.80;;;;;;6186783;23;19997;-89
2021/08/21 05:59:52;;;;;;;4.53;3.63;;;33.30;69.10;;;;;;6186541;23;20413;-80
2021/08/21 06:02:17;;;;;;;8.55;3.72;;;33.20;69.00;;;;;;6186410;23;20001;-86
2021/08/21 06:04:43;;;;;;;5.00;3.28;;;33.40;69.10;;;;;;6186653;23;20064;-90
2021/08/21 06:07:08;;;;;;;4.10;3.15;;;34.30;68.40;;;;;;6186715;23;19997;-88
2021/08/21 06:09:34;;;;;;;8.35;3.65;;;34.90;67.40;;;;;;6186231;23;20005;-90
2021/08/21 06:12:00;;;;;;;5.72;3.55;;;35.20;66.20;;;;;;6187155;23;20004;-87
2021/08/21 06:14:25;;;;;;;11.68;3.55;;;34.90;66.90;;;;;;6186442;23;20068;-89
2021/08/21 06:16:51;;;;;;;4.38;3.08;;;35.30;66.10;;;;;;6186365;23;20058;-83
2021/08/21 06:19:17;;;;;;;6.75;3.45;;;35.70;65.20;;;;;;6186081;23;20060;-90
2021/08/21 06:21:44;;;;;;;9.20;3.30;;;35.70;64.50;;;;;;6186009;23;19993;-88
2021/08/21 06:24:10;;;;;;;5.60;3.60;;;35.90;64.70;;;;;;6186706;23;20008;-89
2021/08/21 06:26:36;;;;;;;6.55;3.45;;;36.10;64.10;;;;;;6186480;23;20332;-87
2021/08/21 06:29:03;;;;;;;8.52;3.65;;;36.50;64.30;;;;;;6186472;23;20007;-88
2021/08/21 06:31:28;;;;;;;4.70;2.92;;;37.10;63.90;;;;;;6185837;23;20063;-88
2021/08/21 06:33:54;;;;;;;11.60;3.15;;;37.60;62.70;;;;;;6185730;23;20005;-87
2021/08/21 06:36:21;;;;;;;6.95;3.45;;;37.90;61.80;;;;;;6186421;23;20005;-90
2021/08/21 06:38:46;;;;;;;5.30;3.22;;;38.40;62.70;;;;;;6186229;23;20024;-90
2021/08/21 06:41:12;;;;;;;6.55;2.85;;;38.90;61.00;;;;;;6186005;23;20006;-87
2021/08/21 06:43:38;;;;;;;5.90;2.75;;;39.30;60.30;;;;;;6186123;23;19997;-85
2021/08/21 06:46:03;;;;;;;6.38;2.97;;;39.70;60.30;;;;;;6186045;23;20036;-83
2021/08/21 06:48:29;;;;;;;4.85;3.13;;;39.60;59.30;;;;;;6185888;23;20446;-89
2021/08/21 06:50:55;;;;;;;4.93;2.97;;;39.60;59.20;;;;;;6186230;23;20332;-86
2021/08/21 06:53:21;;;;;;;4.65;2.88;;;39.80;59.00;;;;;;6186535;23;20009;-83
2021/08/21 06:55:47;;;;;;;4.28;3.15;;;39.80;58.90;;;;;;6186377;23;20313;-87
2021/08/21 06:58:13;;;;;;;3.55;2.90;;;39.30;59.00;;;;;;6186587;23;20005;-89
2021/08/21 07:00:39;;;;;;;3.25;2.78;;;39.00;59.00;;;;;;6185812;23;20447;-85
2021/08/21 07:03:05;;;;;;;3.97;2.78;;;38.60;59.20;;;;;;6186032;23;20025;-88
2021/08/21 07:05:31;;;;;;;3.00;2.60;;;38.50;59.50;;;;;;6187574;23;20307;-88
2021/08/21 07:07:57;;;;;;;8.07;3.13;;;38.50;59.20;;;;;;6192820;23;20008;-85
2021/08/21 07:10:23;;;;;;;7.88;3.08;;;38.80;59.10;;;;;;6191381;23;20155;-90
2021/08/21 07:12:48;;;;;;;6.43;2.90;;;39.30;58.60;;;;;;6186287;23;19998;-79
2021/08/21 07:15:15;;;;;;;3.90;2.80;;;39.50;58.30;;;;;;6187685;23;20084;-79
2021/08/21 07:17:41;;;;;;;4.80;3.00;;;39.70;58.10;;;;;;6160304;23;20005;-87
2021/08/21 07:20:07;;;;;;;4.75;3.08;;;39.70;58.00;;;;;;6185963;23;20001;-86
2021/08/21 07:22:33;;;;;;;4.32;2.92;;;39.70;58.10;;;;;;6185926;23;20001;-83
2021/08/21 07:24:58;;;;;;;4.45;2.90;;;39.80;57.90;;;;;;6186402;23;20498;-85
2021/08/21 07:27:24;;;;;;;13.25;2.85;;;40.10;57.30;;;;;;6186170;23;20006;-85
2021/08/21 07:29:49;;;;;;;6.28;2.83;;;40.60;57.20;;;;;;6185965;23;20019;-79
2021/08/21 07:32:15;;;;;;;9.80;3.25;;;41.00;56.60;;;;;;6185961;23;20028;-89
2021/08/21 07:34:42;;;;;;;3.10;2.10;;;41.00;56.40;;;;;;6186596;23;20008;-85
2021/08/21 07:37:08;;;;;;;3.00;2.60;;;41.20;56.10;;;;;;6187912;23;20008;-87
2021/08/21 07:39:33;;;;;;;6.10;2.80;;;41.60;56.30;;;;;;6187789;23;20005;-86
2021/08/21 07:41:59;;;;;;;4.13;2.90;;;42.00;55.80;;;;;;6187594;23;20012;-82
2021/08/21 07:44:25;;;;;;;3.50;2.78;;;42.00;55.00;;;;;;6187565;23;19997;-85
2021/08/21 07:46:51;;;;;;;4.65;2.75;;;42.10;55.10;;;;;;6187507;23;20036;-82
2021/08/21 07:49:16;;;;;;;4.78;3.05;;;42.90;54.40;;;;;;6187413;23;20446;-82
2021/08/21 07:51:43;;;;;;;4.07;3.08;;;43.20;54.00;;;;;;6187723;23;20089;-84
2021/08/21 07:54:08;;;;;;;4.40;3.05;;;43.00;53.30;;;;;;6187350;23;19998;-85
2021/08/21 07:56:34;;;;;;;4.65;2.90;;;43.50;53.20;;;;;;6187704;23;20009;-82
2021/08/21 07:59:00;;;;;;;5.15;2.75;;;43.70;52.80;;;;;;6187414;23;19997;-83
2021/08/21 08:01:25;;;;;;;5.28;2.67;;;44.00;52.20;;;;;;6187163;23;20008;-81
2021/08/21 08:03:51;;;;;;;3.65;3.15;;;44.20;52.70;;;;;;6189118;23;20009;-88
2021/08/21 08:06:17;;;;;;;3.80;2.47;;;44.80;52.20;;;;;;6186663;23;20001;-83
2021/08/21 08:08:43;;;;;;;7.55;2.63;;;45.30;52.40;;;;;;6187161;23;20028;-81
2021/08/21 08:11:08;;;;;;;4.05;2.75;;;45.60;50.90;;;;;;6186341;23;20019;-83
2021/08/21 08:13:34;;;;;;;4.15;2.47;;;45.20;50.20;;;;;;6186281;23;20384;-83
2021/08/21 08:16:00;;;;;;;4.55;2.70;;;44.40;51.00;;;;;;6186250;23;20009;-83
2021/08/21 08:18:26;;;;;;;5.15;2.70;;;44.00;50.70;;;;;;6186535;23;20008;-84
2021/08/21 08:20:52;;;;;;;3.67;2.55;;;43.90;51.00;;;;;;6186909;23;20437;-87
2021/08/21 08:23:17;;;;;;;4.75;2.85;;;43.90;51.00;;;;;;6187063;23;20065;-86
2021/08/21 08:25:43;;;;;;;3.33;2.85;;;43.80;50.90;;;;;;6187546;23;20451;-85
2021/08/21 08:28:09;;;;;;;5.07;2.70;;;43.60;50.70;;;;;;6187219;23;20004;-88
2021/08/21 08:30:35;;;;;;;5.85;2.55;;;43.80;50.70;;;;;;6186924;23;20090;-85
2021/08/21 08:33:00;;;;;;;6.63;2.53;;;43.90;50.40;;;;;;6187282;23;20028;-84
2021/08/21 08:35:26;;;;;;;6.80;2.55;;;44.20;50.00;;;;;;6186918;23;20048;-85
2021/08/21 08:37:52;;;;;;;4.47;2.67;;;44.60;50.00;;;;;;6186972;23;19998;-86
2021/08/21 08:40:17;;;;;;;3.28;2.60;;;44.70;49.40;;;;;;6187626;23;20436;-85
2021/08/21 08:42:44;;;;;;;5.13;2.80;;;44.20;52.20;;;;;;6187264;23;20424;-85
2021/08/21 08:45:12;;;;;;;6.43;2.85;;;43.80;53.80;;;;;;6186054;23;20488;-85
2021/08/21 08:47:38;;;;;;;4.50;2.88;;;43.40;54.00;;;;;;6186396;23;20435;-82
2021/08/21 08:50:06;;;;;;;7.63;3.45;;;42.60;55.80;;;;;;6187044;23;20340;-83
2021/08/21 08:52:33;;;;;;;10.45;3.10;;;41.90;56.40;;;;;;6187759;23;20079;-81
2021/08/21 08:54:59;;;;;;;8.02;3.10;;;41.30;56.70;;;;;;6188498;23;20001;-83
2021/08/21 08:57:39;;;;;;;8.45;3.05;;;40.60;57.10;;;;;;6189251;23;20005;-80
2021/08/21 09:00:13;;;;;;;5.15;3.10;;;39.50;58.20;;;;;;6189408;23;20005;-80
2021/08/21 09:02:45;;;;;;;7.72;3.35;;;39.00;58.60;;;;;;6189218;23;20013;-82
2021/08/21 09:05:13;;;;;;;7.78;3.42;;;38.40;59.10;;;;;;6191041;23;20004;-84
2021/08/21 09:07:53;;;;;;;7.47;3.42;;;38.20;59.50;;;;;;6169087;23;20001;-79
2021/08/21 09:10:27;;;;;;;6.35;3.70;;;37.70;60.90;;;;;;6190698;23;20024;-89
2021/08/21 09:13:16;;;;;;;7.95;4.28;;;37.30;62.00;;;;;;6189540;23;20001;-84
2021/08/21 09:15:48;;;;;;;10.70;3.60;;;37.00;62.00;;;;;;6190883;23;20068;-83
2021/08/21 09:18:25;;;;;;;7.45;3.58;;;36.80;63.60;;;;;;6192402;23;20001;-85
2021/08/21 09:20:52;;;;;;;7.28;3.70;;;36.70;63.70;;;;;;6193673;23;20001;-84
2021/08/21 09:23:36;;;;;;;5.30;3.55;;;36.70;63.40;;;;;;6194562;23;20139;-83
2021/08/21 09:26:13;;;;;;;3.95;3.33;;;36.70;63.80;;;;;;6169509;23;20015;-86
2021/08/21 09:28:44;;;;;;;9.18;4.20;;;36.30;65.20;;;;;;6169383;23;20055;-84
2021/08/21 09:31:11;;;;;;;8.13;3.85;;;36.30;66.30;;;;;;6194961;23;20035;-85
2021/08/21 09:34:04;;;;;;;8.10;3.53;;;36.40;66.60;;;;;;6194207;23;20084;-82
2021/08/21 09:36:41;;;;;;;9.00;3.47;;;36.40;66.50;;;;;;6195852;23;20010;-81
2021/08/21 09:39:09;;;;;;;7.25;4.10;;;36.50;65.60;;;;;;6195670;23;20077;-81
2021/08/21 09:42:01;;;;;;;8.23;3.72;;;36.40;66.00;;;;;;6193996;23;20001;-81
2021/08/21 09:44:39;;;;;;;8.25;4.13;;;36.10;65.60;;;;;;6195079;23;20502;-80
2021/08/21 09:47:26;;;;;;;6.75;3.88;;;36.20;67.40;;;;;;6194238;23;20008;-81
2021/08/21 09:50:09;;;;;;;11.20;3.58;;;36.30;67.30;;;;;;6196283;23;20001;-82
2021/08/21 09:52:36;;;;;;;6.90;4.18;;;36.40;67.50;;;;;;6193051;23;20293;-81
2021/08/21 09:55:02;;;;;;;9.20;3.88;;;36.40;66.90;;;;;;6192676;23;20057;-81
2021/08/21 09:57:28;;;;;;;11.63;3.70;;;36.50;66.70;;;;;;6191406;23;20063;-82
2021/08/21 09:59:57;;;;;;;4.85;3.70;;;36.40;66.10;;;;;;6189885;23;20075;-80
2021/08/21 10:02:24;;;;;;;4.97;3.50;;;36.40;65.70;;;;;;6191737;23;20043;-81
2021/08/21 10:04:50;;;;;;;9.27;3.90;;;35.90;65.80;;;;;;6190275;23;20464;-81
2021/08/21 10:07:22;;;;;;;10.65;4.70;;;35.50;66.60;;;;;;6190874;23;20080;-81
2021/08/21 10:09:52;;;;;;;10.10;4.22;;;35.00;67.70;;;;;;6190271;23;20001;-81
2021/08/21 10:12:18;;;;;;;4.80;3.88;;;34.60;69.30;;;;;;6190784;23;20005;-79
2021/08/21 10:14:45;;;;;;;8.63;4.60;;;34.40;70.10;;;;;;6190909;23;20001;-80
2021/08/21 10:17:14;;;;;;;8.70;3.88;;;34.20;70.90;;;;;;6190237;23;20037;-86
2021/08/21 10:19:40;;;;;;;8.32;4.72;;;34.30;70.50;;;;;;6187486;23;20428;-83
2021/08/21 10:22:08;;;;;;;8.15;3.40;;;34.40;71.10;;;;;;6189635;23;20023;-82
2021/08/21 10:24:37;;;;;;;6.80;3.63;;;34.40;69.70;;;;;;6187855;23;20001;-80
2021/08/21 10:27:15;;;;;;;13.30;4.18;;;34.10;69.00;;;;;;6186304;23;20012;-81
2021/08/21 10:30:05;;;;;;;7.10;4.13;;;34.20;69.50;;;;;;6186901;23;20006;-82
2021/08/21 10:32:42;;;;;;;14.23;4.32;;;34.40;68.80;;;;;;6189485;23;20001;-82
2021/08/21 10:35:09;;;;;;;5.18;3.70;;;34.50;68.00;;;;;;6186863;23;20276;-81
2021/08/21 10:37:37;;;;;;;5.05;3.70;;;34.40;68.20;;;;;;6186792;23;20001;-80
2021/08/21 10:40:28;;;;;;;6.35;3.42;;;34.10;70.40;;;;;;6186733;23;20005;-82
2021/08/21 10:42:58;;;;;;;11.25;4.28;;;33.80;70.60;;;;;;6186210;23;20005;-84
2021/08/21 10:45:44;;;;;;;10.77;4.28;;;33.60;72.40;;;;;;6186326;23;20005;-82
2021/08/21 10:48:22;;;;;;;8.10;4.20;;;33.50;75.90;;;;;;6185619;23;20009;-84
2021/08/21 10:50:49;;;;;;;8.57;3.60;;;33.40;74.70;;;;;;6186000;23;20443;-86
2021/08/21 10:53:22;;;;;;;12.80;4.25;;;33.20;72.90;;;;;;6159484;23;20001;-84
2021/08/21 10:55:48;;;;;;;12.27;4.22;;;33.00;76.30;;;;;;6185663;23;20008;-82
2021/08/21 10:58:22;;;;;;;8.35;3.97;;;33.00;77.40;;;;;;6185813;23;20005;-83
2021/08/21 11:00:53;;;;;;;8.15;3.92;;;33.00;78.50;;;;;;6185730;23;20459;-84
2021/08/21 11:03:25;;;;;;;8.07;4.28;;;32.80;80.40;;;;;;6185785;23;20017;-85
2021/08/21 11:06:06;;;;;;;5.88;4.07;;;32.70;80.60;;;;;;6184895;23;20008;-84
2021/08/21 11:08:39;;;;;;;5.80;4.10;;;32.60;77.80;;;;;;6185862;23;20001;-84
2021/08/21 11:11:08;;;;;;;5.85;4.22;;;32.50;78.50;;;;;;6185303;23;20036;-82
2021/08/21 11:13:59;;;;;;;7.97;3.67;;;32.50;77.30;;;;;;6158595;23;20009;-84
2021/08/21 11:16:54;;;;;;;8.40;4.00;;;32.50;78.50;;;;;;6185377;23;20005;-84
2021/08/21 11:19:22;;;;;;;8.88;4.85;;;32.40;78.00;;;;;;6184253;23;20001;-83
2021/08/21 11:21:49;;;;;;;11.85;4.35;;;32.30;77.80;;;;;;6184401;23;20001;-82
2021/08/21 11:24:28;;;;;;;7.70;3.83;;;32.20;77.40;;;;;;6184660;23;20009;-83
2021/08/21 11:27:25;;;;;;;6.88;3.63;;;32.30;78.30;;;;;;6185537;23;20032;-83
2021/08/21 11:30:06;;;;;;;7.90;3.38;;;32.50;77.50;;;;;;6185355;23;20109;-83
2021/08/21 11:32:50;;;;;;;6.43;3.60;;;32.60;76.80;;;;;;6184358;23;20008;-84
2021/08/21 11:35:25;;;;;;;20.60;6.25;;;32.50;78.00;;;;;;6185618;23;20503;-85
2021/08/21 11:37:51;;;;;;;8.65;3.80;;;32.50;78.40;;;;;;6185481;23;20008;-85
2021/08/21 11:40:18;;;;;;;6.10;4.00;;;32.40;79.10;;;;;;6185734;23;20001;-82
2021/08/21 11:42:46;;;;;;;14.52;4.68;;;32.40;79.70;;;;;;6185345;23;20012;-82
2021/08/21 11:45:15;;;;;;;6.68;4.03;;;32.40;80.30;;;;;;6158999;23;20451;-83
2021/08/21 11:47:41;;;;;;;11.25;4.35;;;32.50;79.20;;;;;;6185180;23;20005;-84
2021/08/21 11:50:23;;;;;;;11.55;4.07;;;32.60;78.00;;;;;;6185217;23;20335;-81
2021/08/21 11:52:50;;;;;;;14.68;4.05;;;32.50;79.50;;;;;;6185447;23;20001;-84
2021/08/21 11:55:17;;;;;;;8.18;4.50;;;32.50;79.00;;;;;;6185477;23;20005;-83
2021/08/21 11:57:44;;;;;;;9.73;4.38;;;32.60;80.00;;;;;;6185405;23;19998;-83
2021/08/21 12:00:12;;;;;;;11.20;4.30;;;32.60;81.50;;;;;;6185319;23;20080;-84
2021/08/21 12:02:46;;;;;;;11.90;4.68;;;32.50;81.70;;;;;;6185176;23;20078;-83
2021/08/21 12:05:12;;;;;;;10.27;4.82;;;32.50;83.00;;;;;;6185076;23;20008;-80
2021/08/21 12:07:38;;;;;;;11.07;4.18;;;32.40;83.60;;;;;;6185324;23;20432;-85
2021/08/21 12:10:04;;;;;;;13.63;4.43;;;32.40;82.40;;;;;;6185351;23;20013;-80
2021/08/21 12:12:33;;;;;;;10.30;4.50;;;32.40;81.70;;;;;;6159009;23;20454;-86
2021/08/21 12:15:00;;;;;;;11.63;4.60;;;32.40;80.30;;;;;;6185335;23;20375;-88
2021/08/21 12:17:28;;;;;;;13.40;4.40;;;32.30;80.50;;;;;;6184417;23;19997;-84
2021/08/21 12:19:54;;;;;;;6.05;3.83;;;32.30;80.40;;;;;;6184563;23;20428;-88
2021/08/21 12:22:20;;;;;;;12.20;4.15;;;32.30;78.90;;;;;;6185598;23;20009;-81
2021/08/21 12:24:56;;;;;;;12.70;5.63;;;32.20;78.20;;;;;;6186268;23;20009;-84
2021/08/21 12:27:29;;;;;;;6.20;3.60;;;32.20;77.80;;;;;;6188809;23;20036;-82
2021/08/21 12:30:06;;;;;;;7.88;3.85;;;32.20;77.90;;;;;;6159117;23;20009;-86
2021/08/21 12:32:32;;;;;;;8.88;4.80;;;32.10;77.90;;;;;;6186193;23;20001;-81
2021/08/21 12:35:11;;;;;;;12.88;4.28;;;32.00;78.00;;;;;;6186897;23;20057;-87
2021/08/21 12:37:37;;;;;;;5.55;3.67;;;32.00;78.20;;;;;;6187470;23;20005;-84
2021/08/21 12:40:12;;;;;;;7.00;4.13;;;32.10;78.60;;;;;;6186937;23;20013;-82
2021/08/21 12:42:38;;;;;;;10.48;4.35;;;32.10;78.00;;;;;;6160086;23;20432;-86
2021/08/21 12:45:23;;;;;;;10.07;4.60;;;32.20;78.50;;;;;;6186527;23;20025;-83
2021/08/21 12:47:48;;;;;;;8.35;3.80;;;32.20;76.30;;;;;;6186333;23;20431;-83
2021/08/21 12:50:15;;;;;;;12.40;4.13;;;32.30;77.60;;;;;;6185305;23;20051;-84